Irvington, New Jersey
Current Conditions -  °F | °C
As of 6:51 AM on Tuesday 27 Jan 2015 (Local Time) from KEWR Reporting Station
Light Snow Light Snow  
Wind Chill:   Ceiling: 3800
Heat Index: 22°   Visibility: 6mi
Dew Point: 15°   Wind: 17mph
Humidity: 75%   Direction: 350°N
Pressure: 29.69"   Gusts: 24mph
Location:  40.73°N, 74.23°W
Report Text: KEWR 271151Z 35015G21KT 6SM -SN FEW020 OVC038 M06/M09 A2969 RMK AO2 PK WND 34026/1101 SLP053 PRESENT WX DRSN 931027 4/008 P0000 60017 70032 T10561094 11050 21067 53004 $
Loading
Personal Weather Stations






























Interactive Weather Map New forecast layout! Learn more

10-Day Weather Forecast

Advertisements
Track Severe Weather on mobile